Terminal Aerodrome Forecast
Issued by NWS

Home | Current Version | Previous Version | Text Only | Print | Product List | Glossary On
Versions: 1 2 3 4 5 6 7 8 9 10 11 12 13 14 15 16 17
000
FTUS44 KJAN 241525 AAA
TAFHKS
TAF AMD
KHKS 241525Z 2415/2512 21009KT P6SM BKN025
     FM241700 18013G20KT P6SM BKN040
     FM250000 23008KT P6SM OVC040
     FM250600 33004KT P6SM SKC=

USA.gov is the U.S. government's official web portal to all federal, state and local government web resources and services.